sensor_id;sensor_type;location;lat;lon;timestamp;P1;durP1;ratioP1;P2;durP2;ratioP2
23290;SDS011;11814;44.686;10.842;2023-04-04T00:01:38;11.82;;;4.30;;
23290;SDS011;11814;44.686;10.842;2023-04-04T00:04:03;7.03;;;3.90;;
23290;SDS011;11814;44.686;10.842;2023-04-04T00:06:29;6.88;;;3.63;;
23290;SDS011;11814;44.686;10.842;2023-04-04T00:08:55;10.05;;;4.50;;
23290;SDS011;11814;44.686;10.842;2023-04-04T00:11:21;12.32;;;3.70;;
23290;SDS011;11814;44.686;10.842;2023-04-04T00:13:47;6.03;;;3.53;;
23290;SDS011;11814;44.686;10.842;2023-04-04T00:16:12;13.10;;;3.55;;
23290;SDS011;11814;44.686;10.842;2023-04-04T00:18:38;10.18;;;3.90;;
23290;SDS011;11814;44.686;10.842;2023-04-04T00:21:04;6.68;;;3.60;;
23290;SDS011;11814;44.686;10.842;2023-04-04T00:23:30;11.48;;;3.50;;
23290;SDS011;11814;44.686;10.842;2023-04-04T00:25:55;8.38;;;3.40;;
23290;SDS011;11814;44.686;10.842;2023-04-04T00:28:21;6.60;;;3.35;;
23290;SDS011;11814;44.686;10.842;2023-04-04T00:30:47;7.05;;;3.40;;
23290;SDS011;11814;44.686;10.842;2023-04-04T00:33:13;10.57;;;3.53;;
23290;SDS011;11814;44.686;10.842;2023-04-04T00:35:39;9.00;;;3.42;;
23290;SDS011;11814;44.686;10.842;2023-04-04T00:38:05;8.35;;;3.13;;
23290;SDS011;11814;44.686;10.842;2023-04-04T00:40:31;6.70;;;2.60;;
23290;SDS011;11814;44.686;10.842;2023-04-04T00:43:17;6.15;;;3.15;;
23290;SDS011;11814;44.686;10.842;2023-04-04T00:45:43;7.85;;;2.88;;
23290;SDS011;11814;44.686;10.842;2023-04-04T00:48:10;6.63;;;3.20;;
23290;SDS011;11814;44.686;10.842;2023-04-04T00:50:36;4.68;;;2.90;;
23290;SDS011;11814;44.686;10.842;2023-04-04T00:53:01;8.55;;;2.97;;
23290;SDS011;11814;44.686;10.842;2023-04-04T00:55:27;10.57;;;2.55;;
23290;SDS011;11814;44.686;10.842;2023-04-04T00:57:53;7.05;;;3.50;;
23290;SDS011;11814;44.686;10.842;2023-04-04T01:00:19;5.40;;;3.10;;
23290;SDS011;11814;44.686;10.842;2023-04-04T01:02:45;8.10;;;2.28;;
23290;SDS011;11814;44.686;10.842;2023-04-04T01:05:11;4.82;;;2.47;;
23290;SDS011;11814;44.686;10.842;2023-04-04T01:07:38;6.10;;;2.63;;
23290;SDS011;11814;44.686;10.842;2023-04-04T01:10:04;6.03;;;2.13;;
23290;SDS011;11814;44.686;10.842;2023-04-04T01:12:31;4.05;;;2.35;;
23290;SDS011;11814;44.686;10.842;2023-04-04T01:14:56;7.40;;;2.80;;
23290;SDS011;11814;44.686;10.842;2023-04-04T01:17:22;6.55;;;2.35;;
23290;SDS011;11814;44.686;10.842;2023-04-04T01:19:52;11.30;;;2.70;;
23290;SDS011;11814;44.686;10.842;2023-04-04T01:22:26;6.80;;;2.67;;
23290;SDS011;11814;44.686;10.842;2023-04-04T01:24:54;10.32;;;2.58;;
23290;SDS011;11814;44.686;10.842;2023-04-04T01:27:21;8.10;;;2.25;;
23290;SDS011;11814;44.686;10.842;2023-04-04T01:29:46;6.65;;;2.45;;
23290;SDS011;11814;44.686;10.842;2023-04-04T01:32:15;4.75;;;2.47;;
23290;SDS011;11814;44.686;10.842;2023-04-04T01:37:39;5.45;;;2.03;;
23290;SDS011;11814;44.686;10.842;2023-04-04T01:40:20;10.07;;;2.53;;
23290;SDS011;11814;44.686;10.842;2023-04-04T01:42:49;8.90;;;2.40;;
23290;SDS011;11814;44.686;10.842;2023-04-04T01:45:16;7.97;;;2.90;;
23290;SDS011;11814;44.686;10.842;2023-04-04T01:47:42;12.25;;;2.67;;
23290;SDS011;11814;44.686;10.842;2023-04-04T01:50:09;8.25;;;2.50;;
23290;SDS011;11814;44.686;10.842;2023-04-04T01:52:36;7.93;;;2.63;;
23290;SDS011;11814;44.686;10.842;2023-04-04T01:55:02;13.05;;;2.50;;
23290;SDS011;11814;44.686;10.842;2023-04-04T01:57:28;5.88;;;2.20;;
23290;SDS011;11814;44.686;10.842;2023-04-04T01:59:54;14.07;;;2.58;;
23290;SDS011;11814;44.686;10.842;2023-04-04T02:02:20;9.55;;;2.90;;
23290;SDS011;11814;44.686;10.842;2023-04-04T02:04:46;14.32;;;3.83;;
23290;SDS011;11814;44.686;10.842;2023-04-04T02:07:12;13.35;;;4.05;;
23290;SDS011;11814;44.686;10.842;2023-04-04T02:09:38;13.43;;;3.50;;
23290;SDS011;11814;44.686;10.842;2023-04-04T02:12:04;10.60;;;3.10;;
23290;SDS011;11814;44.686;10.842;2023-04-04T02:14:30;10.70;;;2.95;;
23290;SDS011;11814;44.686;10.842;2023-04-04T02:16:56;7.47;;;2.22;;
23290;SDS011;11814;44.686;10.842;2023-04-04T02:19:22;12.45;;;3.03;;
23290;SDS011;11814;44.686;10.842;2023-04-04T02:21:48;7.25;;;3.42;;
23290;SDS011;11814;44.686;10.842;2023-04-04T02:24:14;10.27;;;3.03;;
23290;SDS011;11814;44.686;10.842;2023-04-04T02:26:40;7.95;;;2.67;;
23290;SDS011;11814;44.686;10.842;2023-04-04T02:29:06;8.65;;;2.53;;
23290;SDS011;11814;44.686;10.842;2023-04-04T02:31:32;9.95;;;2.58;;
23290;SDS011;11814;44.686;10.842;2023-04-04T02:33:58;14.05;;;3.00;;
23290;SDS011;11814;44.686;10.842;2023-04-04T02:36:24;9.10;;;2.30;;
23290;SDS011;11814;44.686;10.842;2023-04-04T02:38:49;9.93;;;2.40;;
23290;SDS011;11814;44.686;10.842;2023-04-04T02:41:15;16.50;;;2.58;;
23290;SDS011;11814;44.686;10.842;2023-04-04T02:43:41;8.68;;;2.55;;
23290;SDS011;11814;44.686;10.842;2023-04-04T02:46:07;7.38;;;2.53;;
23290;SDS011;11814;44.686;10.842;2023-04-04T02:48:33;11.48;;;2.72;;
23290;SDS011;11814;44.686;10.842;2023-04-04T02:51:00;7.35;;;2.10;;
23290;SDS011;11814;44.686;10.842;2023-04-04T02:53:26;5.15;;;1.88;;
23290;SDS011;11814;44.686;10.842;2023-04-04T02:55:52;8.23;;;2.35;;
23290;SDS011;11814;44.686;10.842;2023-04-04T02:58:18;7.45;;;2.35;;
23290;SDS011;11814;44.686;10.842;2023-04-04T03:00:43;4.90;;;1.98;;
23290;SDS011;11814;44.686;10.842;2023-04-04T03:03:11;10.93;;;2.28;;
23290;SDS011;11814;44.686;10.842;2023-04-04T03:05:37;8.68;;;2.40;;
23290;SDS011;11814;44.686;10.842;2023-04-04T03:08:02;7.43;;;2.30;;
23290;SDS011;11814;44.686;10.842;2023-04-04T03:10:29;7.43;;;2.47;;
23290;SDS011;11814;44.686;10.842;2023-04-04T03:12:55;5.63;;;2.45;;
23290;SDS011;11814;44.686;10.842;2023-04-04T03:15:21;9.35;;;2.75;;
23290;SDS011;11814;44.686;10.842;2023-04-04T03:17:47;6.70;;;2.45;;
23290;SDS011;11814;44.686;10.842;2023-04-04T03:20:13;7.85;;;2.20;;
23290;SDS011;11814;44.686;10.842;2023-04-04T03:22:40;8.15;;;2.22;;
23290;SDS011;11814;44.686;10.842;2023-04-04T03:25:06;8.00;;;2.30;;
23290;SDS011;11814;44.686;10.842;2023-04-04T03:27:33;5.32;;;2.38;;
23290;SDS011;11814;44.686;10.842;2023-04-04T03:29:58;8.07;;;2.65;;
23290;SDS011;11814;44.686;10.842;2023-04-04T03:32:24;9.68;;;2.30;;
23290;SDS011;11814;44.686;10.842;2023-04-04T03:34:51;6.93;;;2.55;;
23290;SDS011;11814;44.686;10.842;2023-04-04T03:37:18;13.45;;;2.58;;
23290;SDS011;11814;44.686;10.842;2023-04-04T03:39:44;6.22;;;2.50;;
23290;SDS011;11814;44.686;10.842;2023-04-04T03:42:10;9.13;;;2.20;;
23290;SDS011;11814;44.686;10.842;2023-04-04T03:44:39;9.65;;;2.40;;
23290;SDS011;11814;44.686;10.842;2023-04-04T03:47:05;12.23;;;2.60;;
23290;SDS011;11814;44.686;10.842;2023-04-04T03:49:31;10.20;;;2.10;;
23290;SDS011;11814;44.686;10.842;2023-04-04T03:51:58;4.38;;;1.70;;
23290;SDS011;11814;44.686;10.842;2023-04-04T03:54:24;11.93;;;2.00;;
23290;SDS011;11814;44.686;10.842;2023-04-04T03:56:52;6.97;;;2.00;;
23290;SDS011;11814;44.686;10.842;2023-04-04T03:59:18;9.32;;;2.10;;
23290;SDS011;11814;44.686;10.842;2023-04-04T04:01:43;9.90;;;2.30;;
23290;SDS011;11814;44.686;10.842;2023-04-04T04:04:09;7.93;;;1.98;;
23290;SDS011;11814;44.686;10.842;2023-04-04T04:06:35;7.82;;;2.17;;
23290;SDS011;11814;44.686;10.842;2023-04-04T04:09:01;7.63;;;2.38;;
23290;SDS011;11814;44.686;10.842;2023-04-04T04:11:27;4.28;;;1.90;;
23290;SDS011;11814;44.686;10.842;2023-04-04T04:13:53;8.18;;;1.90;;
23290;SDS011;11814;44.686;10.842;2023-04-04T04:16:19;7.85;;;2.10;;
23290;SDS011;11814;44.686;10.842;2023-04-04T04:18:46;8.93;;;2.10;;
23290;SDS011;11814;44.686;10.842;2023-04-04T04:21:12;8.65;;;2.20;;
23290;SDS011;11814;44.686;10.842;2023-04-04T04:23:38;6.18;;;2.03;;
23290;SDS011;11814;44.686;10.842;2023-04-04T04:26:04;4.45;;;2.10;;
23290;SDS011;11814;44.686;10.842;2023-04-04T04:28:30;5.47;;;2.22;;
23290;SDS011;11814;44.686;10.842;2023-04-04T04:31:02;5.43;;;2.10;;
23290;SDS011;11814;44.686;10.842;2023-04-04T04:33:30;10.27;;;2.20;;
23290;SDS011;11814;44.686;10.842;2023-04-04T04:35:59;4.78;;;1.83;;
23290;SDS011;11814;44.686;10.842;2023-04-04T04:38:26;5.75;;;2.25;;
23290;SDS011;11814;44.686;10.842;2023-04-04T04:40:52;10.20;;;2.63;;
23290;SDS011;11814;44.686;10.842;2023-04-04T04:43:18;5.25;;;2.20;;
23290;SDS011;11814;44.686;10.842;2023-04-04T04:45:44;8.68;;;1.95;;
23290;SDS011;11814;44.686;10.842;2023-04-04T04:48:11;7.13;;;2.30;;
23290;SDS011;11814;44.686;10.842;2023-04-04T04:50:44;9.65;;;2.30;;
23290;SDS011;11814;44.686;10.842;2023-04-04T04:53:11;6.20;;;2.10;;
23290;SDS011;11814;44.686;10.842;2023-04-04T04:55:40;10.65;;;2.15;;
23290;SDS011;11814;44.686;10.842;2023-04-04T04:58:09;10.30;;;2.40;;
23290;SDS011;11814;44.686;10.842;2023-04-04T05:00:35;10.77;;;2.58;;
23290;SDS011;11814;44.686;10.842;2023-04-04T05:03:02;7.47;;;1.83;;
23290;SDS011;11814;44.686;10.842;2023-04-04T05:05:31;12.65;;;2.50;;
23290;SDS011;11814;44.686;10.842;2023-04-04T05:07:59;12.20;;;2.20;;
23290;SDS011;11814;44.686;10.842;2023-04-04T05:10:26;9.32;;;2.22;;
23290;SDS011;11814;44.686;10.842;2023-04-04T05:12:52;9.75;;;2.42;;
23290;SDS011;11814;44.686;10.842;2023-04-04T05:15:18;9.63;;;2.47;;
23290;SDS011;11814;44.686;10.842;2023-04-04T05:17:45;9.68;;;2.47;;
23290;SDS011;11814;44.686;10.842;2023-04-04T05:20:10;9.77;;;2.40;;
23290;SDS011;11814;44.686;10.842;2023-04-04T05:22:41;7.60;;;2.03;;
23290;SDS011;11814;44.686;10.842;2023-04-04T05:25:08;10.18;;;2.83;;
23290;SDS011;11814;44.686;10.842;2023-04-04T05:27:37;8.00;;;2.15;;
23290;SDS011;11814;44.686;10.842;2023-04-04T05:30:04;5.63;;;2.50;;
23290;SDS011;11814;44.686;10.842;2023-04-04T05:32:32;10.98;;;2.50;;
23290;SDS011;11814;44.686;10.842;2023-04-04T05:34:58;7.38;;;2.55;;
23290;SDS011;11814;44.686;10.842;2023-04-04T05:37:24;5.20;;;2.38;;
23290;SDS011;11814;44.686;10.842;2023-04-04T05:39:50;10.20;;;2.10;;
23290;SDS011;11814;44.686;10.842;2023-04-04T05:42:15;7.47;;;2.45;;
23290;SDS011;11814;44.686;10.842;2023-04-04T05:44:41;14.10;;;2.65;;
23290;SDS011;11814;44.686;10.842;2023-04-04T05:47:07;6.68;;;2.45;;
23290;SDS011;11814;44.686;10.842;2023-04-04T05:49:33;13.18;;;2.90;;
23290;SDS011;11814;44.686;10.842;2023-04-04T05:51:58;12.95;;;2.65;;
23290;SDS011;11814;44.686;10.842;2023-04-04T05:54:24;10.90;;;3.15;;
23290;SDS011;11814;44.686;10.842;2023-04-04T05:56:51;9.52;;;2.88;;
23290;SDS011;11814;44.686;10.842;2023-04-04T05:59:16;7.78;;;2.35;;
23290;SDS011;11814;44.686;10.842;2023-04-04T06:01:42;8.30;;;2.72;;
23290;SDS011;11814;44.686;10.842;2023-04-04T06:04:09;14.95;;;2.70;;
23290;SDS011;11814;44.686;10.842;2023-04-04T06:06:35;11.38;;;3.03;;
23290;SDS011;11814;44.686;10.842;2023-04-04T06:09:00;10.20;;;3.05;;
23290;SDS011;11814;44.686;10.842;2023-04-04T06:11:26;8.43;;;2.35;;
23290;SDS011;11814;44.686;10.842;2023-04-04T06:13:52;11.85;;;2.65;;
23290;SDS011;11814;44.686;10.842;2023-04-04T06:16:19;17.70;;;2.83;;
23290;SDS011;11814;44.686;10.842;2023-04-04T06:18:45;13.85;;;2.70;;
23290;SDS011;11814;44.686;10.842;2023-04-04T06:21:12;8.20;;;2.67;;
23290;SDS011;11814;44.686;10.842;2023-04-04T06:23:38;8.35;;;2.20;;
23290;SDS011;11814;44.686;10.842;2023-04-04T06:26:04;10.35;;;2.13;;
23290;SDS011;11814;44.686;10.842;2023-04-04T06:28:31;8.55;;;2.25;;
23290;SDS011;11814;44.686;10.842;2023-04-04T06:30:56;5.90;;;1.90;;
23290;SDS011;11814;44.686;10.842;2023-04-04T06:33:23;12.80;;;2.13;;
23290;SDS011;11814;44.686;10.842;2023-04-04T06:35:49;7.95;;;2.00;;
23290;SDS011;11814;44.686;10.842;2023-04-04T06:38:15;5.78;;;2.20;;
23290;SDS011;11814;44.686;10.842;2023-04-04T06:40:41;9.68;;;2.00;;
23290;SDS011;11814;44.686;10.842;2023-04-04T06:43:07;5.93;;;2.00;;
23290;SDS011;11814;44.686;10.842;2023-04-04T06:45:34;6.30;;;1.92;;
23290;SDS011;11814;44.686;10.842;2023-04-04T06:48:00;8.55;;;2.40;;
23290;SDS011;11814;44.686;10.842;2023-04-04T06:50:28;6.43;;;1.70;;
23290;SDS011;11814;44.686;10.842;2023-04-04T06:52:56;6.30;;;1.85;;
23290;SDS011;11814;44.686;10.842;2023-04-04T06:55:22;7.95;;;1.92;;
23290;SDS011;11814;44.686;10.842;2023-04-04T06:57:48;7.55;;;2.15;;
23290;SDS011;11814;44.686;10.842;2023-04-04T07:00:14;5.05;;;1.80;;
23290;SDS011;11814;44.686;10.842;2023-04-04T07:02:40;12.73;;;2.05;;
23290;SDS011;11814;44.686;10.842;2023-04-04T07:05:06;5.45;;;2.10;;
23290;SDS011;11814;44.686;10.842;2023-04-04T07:07:32;7.68;;;2.03;;
23290;SDS011;11814;44.686;10.842;2023-04-04T07:09:58;6.25;;;1.52;;
23290;SDS011;11814;44.686;10.842;2023-04-04T07:12:23;8.68;;;1.98;;
23290;SDS011;11814;44.686;10.842;2023-04-04T07:14:49;8.93;;;1.70;;
23290;SDS011;11814;44.686;10.842;2023-04-04T07:17:15;7.20;;;1.75;;
23290;SDS011;11814;44.686;10.842;2023-04-04T07:19:41;6.88;;;2.10;;
23290;SDS011;11814;44.686;10.842;2023-04-04T07:22:07;4.43;;;1.95;;
23290;SDS011;11814;44.686;10.842;2023-04-04T07:24:32;4.95;;;1.58;;
23290;SDS011;11814;44.686;10.842;2023-04-04T07:26:58;4.50;;;2.08;;
23290;SDS011;11814;44.686;10.842;2023-04-04T07:29:24;7.72;;;1.95;;
23290;SDS011;11814;44.686;10.842;2023-04-04T07:31:49;4.05;;;1.80;;
23290;SDS011;11814;44.686;10.842;2023-04-04T07:34:15;6.03;;;1.75;;
23290;SDS011;11814;44.686;10.842;2023-04-04T07:36:41;8.27;;;1.85;;
23290;SDS011;11814;44.686;10.842;2023-04-04T07:39:07;12.10;;;2.63;;
23290;SDS011;11814;44.686;10.842;2023-04-04T07:41:33;15.05;;;1.75;;
23290;SDS011;11814;44.686;10.842;2023-04-04T07:43:59;3.28;;;1.60;;
23290;SDS011;11814;44.686;10.842;2023-04-04T07:46:25;4.05;;;1.50;;
23290;SDS011;11814;44.686;10.842;2023-04-04T07:48:54;12.80;;;2.00;;
23290;SDS011;11814;44.686;10.842;2023-04-04T07:51:19;5.72;;;1.48;;
23290;SDS011;11814;44.686;10.842;2023-04-04T07:53:52;3.35;;;1.67;;
23290;SDS011;11814;44.686;10.842;2023-04-04T07:56:18;4.72;;;1.73;;
23290;SDS011;11814;44.686;10.842;2023-04-04T07:58:45;9.20;;;2.03;;
23290;SDS011;11814;44.686;10.842;2023-04-04T08:01:11;4.15;;;1.60;;
23290;SDS011;11814;44.686;10.842;2023-04-04T08:03:37;6.95;;;1.70;;
23290;SDS011;11814;44.686;10.842;2023-04-04T08:06:03;5.70;;;2.35;;
23290;SDS011;11814;44.686;10.842;2023-04-04T08:08:28;5.15;;;1.45;;
23290;SDS011;11814;44.686;10.842;2023-04-04T08:10:54;6.60;;;1.70;;
23290;SDS011;11814;44.686;10.842;2023-04-04T08:13:20;6.93;;;1.50;;
23290;SDS011;11814;44.686;10.842;2023-04-04T08:15:46;4.35;;;1.48;;
23290;SDS011;11814;44.686;10.842;2023-04-04T08:18:11;11.00;;;1.70;;
23290;SDS011;11814;44.686;10.842;2023-04-04T08:20:37;4.95;;;1.83;;
23290;SDS011;11814;44.686;10.842;2023-04-04T08:23:03;10.02;;;1.70;;
23290;SDS011;11814;44.686;10.842;2023-04-04T08:25:29;8.85;;;1.80;;
23290;SDS011;11814;44.686;10.842;2023-04-04T08:27:54;5.40;;;1.70;;
23290;SDS011;11814;44.686;10.842;2023-04-04T08:30:21;3.33;;;1.55;;
23290;SDS011;11814;44.686;10.842;2023-04-04T08:32:47;5.97;;;1.92;;
23290;SDS011;11814;44.686;10.842;2023-04-04T08:35:13;3.78;;;1.58;;
23290;SDS011;11814;44.686;10.842;2023-04-04T08:37:45;4.57;;;1.45;;
23290;SDS011;11814;44.686;10.842;2023-04-04T08:40:11;5.18;;;1.90;;
23290;SDS011;11814;44.686;10.842;2023-04-04T08:42:38;3.40;;;1.38;;
23290;SDS011;11814;44.686;10.842;2023-04-04T08:45:05;5.13;;;1.50;;
23290;SDS011;11814;44.686;10.842;2023-04-04T08:47:33;6.35;;;1.90;;
23290;SDS011;11814;44.686;10.842;2023-04-04T08:50:05;8.63;;;1.88;;
23290;SDS011;11814;44.686;10.842;2023-04-04T08:52:32;6.13;;;1.63;;
23290;SDS011;11814;44.686;10.842;2023-04-04T08:54:59;5.22;;;1.63;;
23290;SDS011;11814;44.686;10.842;2023-04-04T08:57:26;5.45;;;1.70;;
23290;SDS011;11814;44.686;10.842;2023-04-04T08:59:53;5.53;;;1.88;;
23290;SDS011;11814;44.686;10.842;2023-04-04T09:02:25;5.75;;;2.05;;
23290;SDS011;11814;44.686;10.842;2023-04-04T09:04:58;6.97;;;1.92;;
23290;SDS011;11814;44.686;10.842;2023-04-04T09:07:26;4.28;;;1.70;;
23290;SDS011;11814;44.686;10.842;2023-04-04T09:09:52;6.63;;;2.05;;
23290;SDS011;11814;44.686;10.842;2023-04-04T09:12:18;5.18;;;1.75;;
23290;SDS011;11814;44.686;10.842;2023-04-04T09:14:46;4.93;;;1.55;;
23290;SDS011;11814;44.686;10.842;2023-04-04T09:17:16;6.25;;;1.70;;
23290;SDS011;11814;44.686;10.842;2023-04-04T09:19:42;3.95;;;2.00;;
23290;SDS011;11814;44.686;10.842;2023-04-04T09:22:08;5.93;;;1.60;;
23290;SDS011;11814;44.686;10.842;2023-04-04T09:24:37;7.25;;;1.90;;
23290;SDS011;11814;44.686;10.842;2023-04-04T09:27:04;5.45;;;1.55;;
23290;SDS011;11814;44.686;10.842;2023-04-04T09:29:33;5.57;;;1.80;;
23290;SDS011;11814;44.686;10.842;2023-04-04T09:31:59;6.45;;;1.60;;
23290;SDS011;11814;44.686;10.842;2023-04-04T09:34:25;7.35;;;1.55;;
23290;SDS011;11814;44.686;10.842;2023-04-04T09:36:54;6.13;;;1.88;;
23290;SDS011;11814;44.686;10.842;2023-04-04T09:39:20;9.18;;;1.50;;
23290;SDS011;11814;44.686;10.842;2023-04-04T09:41:48;14.52;;;1.75;;
23290;SDS011;11814;44.686;10.842;2023-04-04T09:44:14;3.80;;;1.33;;
23290;SDS011;11814;44.686;10.842;2023-04-04T09:46:40;5.82;;;1.70;;
23290;SDS011;11814;44.686;10.842;2023-04-04T09:49:10;7.45;;;1.90;;
23290;SDS011;11814;44.686;10.842;2023-04-04T09:51:37;6.03;;;1.70;;
23290;SDS011;11814;44.686;10.842;2023-04-04T09:54:03;3.33;;;1.45;;
23290;SDS011;11814;44.686;10.842;2023-04-04T09:56:34;5.38;;;1.60;;
23290;SDS011;11814;44.686;10.842;2023-04-04T09:59:03;4.65;;;1.70;;
23290;SDS011;11814;44.686;10.842;2023-04-04T10:01:31;6.32;;;2.10;;
23290;SDS011;11814;44.686;10.842;2023-04-04T10:03:57;6.50;;;2.03;;
23290;SDS011;11814;44.686;10.842;2023-04-04T10:06:23;9.93;;;1.80;;
23290;SDS011;11814;44.686;10.842;2023-04-04T10:08:50;7.97;;;2.05;;
23290;SDS011;11814;44.686;10.842;2023-04-04T10:11:35;4.03;;;1.42;;
23290;SDS011;11814;44.686;10.842;2023-04-04T10:14:02;3.78;;;1.42;;
23290;SDS011;11814;44.686;10.842;2023-04-04T10:16:32;3.30;;;1.38;;
23290;SDS011;11814;44.686;10.842;2023-04-04T10:19:01;3.25;;;1.33;;
23290;SDS011;11814;44.686;10.842;2023-04-04T10:21:29;6.45;;;1.90;;
23290;SDS011;11814;44.686;10.842;2023-04-04T10:24:04;4.63;;;1.60;;
23290;SDS011;11814;44.686;10.842;2023-04-04T10:33:31;2.25;;;1.23;;
23290;SDS011;11814;44.686;10.842;2023-04-04T10:36:05;4.95;;;1.42;;
23290;SDS011;11814;44.686;10.842;2023-04-04T10:38:35;5.05;;;1.58;;
23290;SDS011;11814;44.686;10.842;2023-04-04T10:41:09;5.60;;;1.55;;
23290;SDS011;11814;44.686;10.842;2023-04-04T10:43:39;4.47;;;1.38;;
23290;SDS011;11814;44.686;10.842;2023-04-04T10:46:10;4.55;;;1.60;;
23290;SDS011;11814;44.686;10.842;2023-04-04T10:48:40;5.32;;;1.38;;
23290;SDS011;11814;44.686;10.842;2023-04-04T10:51:06;5.10;;;1.70;;
23290;SDS011;11814;44.686;10.842;2023-04-04T10:53:35;2.92;;;1.40;;
23290;SDS011;11814;44.686;10.842;2023-04-04T10:56:02;3.53;;;1.30;;
23290;SDS011;11814;44.686;10.842;2023-04-04T10:58:28;10.57;;;1.98;;
23290;SDS011;11814;44.686;10.842;2023-04-04T11:00:55;6.07;;;1.90;;
23290;SDS011;11814;44.686;10.842;2023-04-04T11:03:21;7.28;;;1.75;;
23290;SDS011;11814;44.686;10.842;2023-04-04T11:05:49;5.78;;;1.80;;
23290;SDS011;11814;44.686;10.842;2023-04-04T11:08:21;7.35;;;1.80;;
23290;SDS011;11814;44.686;10.842;2023-04-04T11:10:52;5.00;;;1.65;;
23290;SDS011;11814;44.686;10.842;2023-04-04T11:13:19;6.95;;;1.73;;
23290;SDS011;11814;44.686;10.842;2023-04-04T11:16:06;6.05;;;1.58;;
23290;SDS011;11814;44.686;10.842;2023-04-04T11:21:08;5.82;;;1.67;;
23290;SDS011;11814;44.686;10.842;2023-04-04T11:26:12;8.35;;;1.65;;
23290;SDS011;11814;44.686;10.842;2023-04-04T11:29:03;9.23;;;1.67;;
23290;SDS011;11814;44.686;10.842;2023-04-04T11:31:41;4.88;;;1.80;;
23290;SDS011;11814;44.686;10.842;2023-04-04T11:34:12;3.85;;;1.42;;
23290;SDS011;11814;44.686;10.842;2023-04-04T11:39:14;5.00;;;1.58;;
23290;SDS011;11814;44.686;10.842;2023-04-04T11:42:00;6.10;;;1.73;;
23290;SDS011;11814;44.686;10.842;2023-04-04T11:47:12;7.80;;;2.10;;
23290;SDS011;11814;44.686;10.842;2023-04-04T11:49:41;4.85;;;1.83;;
23290;SDS011;11814;44.686;10.842;2023-04-04T11:52:09;7.53;;;1.65;;
23290;SDS011;11814;44.686;10.842;2023-04-04T11:54:37;4.25;;;1.90;;
23290;SDS011;11814;44.686;10.842;2023-04-04T11:57:21;3.63;;;1.48;;
23290;SDS011;11814;44.686;10.842;2023-04-04T11:59:50;6.43;;;1.48;;
23290;SDS011;11814;44.686;10.842;2023-04-04T12:02:20;5.70;;;1.73;;
23290;SDS011;11814;44.686;10.842;2023-04-04T12:04:53;5.25;;;1.80;;
23290;SDS011;11814;44.686;10.842;2023-04-04T12:07:21;7.13;;;1.75;;
23290;SDS011;11814;44.686;10.842;2023-04-04T12:09:51;6.93;;;2.03;;
23290;SDS011;11814;44.686;10.842;2023-04-04T12:12:17;6.85;;;1.55;;
23290;SDS011;11814;44.686;10.842;2023-04-04T12:14:43;4.45;;;1.95;;
23290;SDS011;11814;44.686;10.842;2023-04-04T12:17:10;3.22;;;1.73;;
23290;SDS011;11814;44.686;10.842;2023-04-04T12:19:39;3.55;;;1.90;;
23290;SDS011;11814;44.686;10.842;2023-04-04T12:22:06;6.13;;;1.65;;
23290;SDS011;11814;44.686;10.842;2023-04-04T12:24:32;3.72;;;1.70;;
23290;SDS011;11814;44.686;10.842;2023-04-04T12:26:58;4.30;;;1.55;;
23290;SDS011;11814;44.686;10.842;2023-04-04T12:29:25;5.18;;;1.60;;
23290;SDS011;11814;44.686;10.842;2023-04-04T12:31:53;5.07;;;1.58;;
23290;SDS011;11814;44.686;10.842;2023-04-04T12:34:23;5.45;;;1.65;;
23290;SDS011;11814;44.686;10.842;2023-04-04T12:36:56;6.72;;;1.58;;
23290;SDS011;11814;44.686;10.842;2023-04-04T12:39:25;4.60;;;1.55;;
23290;SDS011;11814;44.686;10.842;2023-04-04T12:41:59;2.67;;;1.48;;
23290;SDS011;11814;44.686;10.842;2023-04-04T12:44:36;5.70;;;1.95;;
23290;SDS011;11814;44.686;10.842;2023-04-04T12:47:06;7.60;;;1.83;;
23290;SDS011;11814;44.686;10.842;2023-04-04T12:49:40;4.60;;;1.77;;
23290;SDS011;11814;44.686;10.842;2023-04-04T12:54:47;4.28;;;1.60;;
23290;SDS011;11814;44.686;10.842;2023-04-04T12:57:24;6.80;;;1.90;;
23290;SDS011;11814;44.686;10.842;2023-04-04T12:59:55;4.95;;;2.05;;
23290;SDS011;11814;44.686;10.842;2023-04-04T13:02:21;6.38;;;1.90;;
23290;SDS011;11814;44.686;10.842;2023-04-04T13:04:50;6.25;;;2.10;;
23290;SDS011;11814;44.686;10.842;2023-04-04T13:07:29;9.52;;;2.00;;
23290;SDS011;11814;44.686;10.842;2023-04-04T13:10:03;5.32;;;1.60;;
23290;SDS011;11814;44.686;10.842;2023-04-04T13:18:16;8.88;;;1.90;;
23290;SDS011;11814;44.686;10.842;2023-04-04T13:20:45;3.00;;;1.48;;
23290;SDS011;11814;44.686;10.842;2023-04-04T13:23:12;5.72;;;1.92;;
23290;SDS011;11814;44.686;10.842;2023-04-04T13:25:38;6.20;;;1.90;;
23290;SDS011;11814;44.686;10.842;2023-04-04T13:28:04;5.00;;;1.77;;
23290;SDS011;11814;44.686;10.842;2023-04-04T13:30:30;4.55;;;1.30;;
23290;SDS011;11814;44.686;10.842;2023-04-04T13:32:56;6.22;;;1.80;;
23290;SDS011;11814;44.686;10.842;2023-04-04T13:35:22;3.30;;;1.70;;
23290;SDS011;11814;44.686;10.842;2023-04-04T13:37:47;5.68;;;1.73;;
23290;SDS011;11814;44.686;10.842;2023-04-04T13:40:13;8.98;;;1.85;;
23290;SDS011;11814;44.686;10.842;2023-04-04T13:42:39;4.40;;;1.85;;
23290;SDS011;11814;44.686;10.842;2023-04-04T13:45:05;3.17;;;1.80;;
23290;SDS011;11814;44.686;10.842;2023-04-04T13:47:31;5.13;;;1.63;;
23290;SDS011;11814;44.686;10.842;2023-04-04T13:49:57;8.50;;;1.80;;
23290;SDS011;11814;44.686;10.842;2023-04-04T13:52:23;7.18;;;1.77;;
23290;SDS011;11814;44.686;10.842;2023-04-04T13:54:49;5.50;;;1.55;;
23290;SDS011;11814;44.686;10.842;2023-04-04T13:57:15;7.70;;;1.70;;
23290;SDS011;11814;44.686;10.842;2023-04-04T13:59:40;3.10;;;1.65;;
23290;SDS011;11814;44.686;10.842;2023-04-04T14:02:06;4.75;;;1.67;;
23290;SDS011;11814;44.686;10.842;2023-04-04T14:04:33;4.82;;;1.65;;
23290;SDS011;11814;44.686;10.842;2023-04-04T14:06:58;5.63;;;1.60;;
23290;SDS011;11814;44.686;10.842;2023-04-04T14:09:24;3.95;;;1.95;;
23290;SDS011;11814;44.686;10.842;2023-04-04T14:11:50;3.65;;;1.65;;
23290;SDS011;11814;44.686;10.842;2023-04-04T14:14:16;5.97;;;1.95;;
23290;SDS011;11814;44.686;10.842;2023-04-04T14:16:41;7.30;;;2.40;;
23290;SDS011;11814;44.686;10.842;2023-04-04T14:19:07;6.38;;;2.15;;
23290;SDS011;11814;44.686;10.842;2023-04-04T14:21:33;8.52;;;1.67;;
23290;SDS011;11814;44.686;10.842;2023-04-04T14:23:59;4.75;;;1.67;;
23290;SDS011;11814;44.686;10.842;2023-04-04T14:26:25;8.80;;;1.85;;
23290;SDS011;11814;44.686;10.842;2023-04-04T14:28:51;6.82;;;1.95;;
23290;SDS011;11814;44.686;10.842;2023-04-04T14:31:16;9.70;;;1.90;;
23290;SDS011;11814;44.686;10.842;2023-04-04T14:33:42;5.53;;;1.60;;
23290;SDS011;11814;44.686;10.842;2023-04-04T14:36:08;4.68;;;1.88;;
23290;SDS011;11814;44.686;10.842;2023-04-04T14:38:33;6.78;;;2.00;;
23290;SDS011;11814;44.686;10.842;2023-04-04T14:40:59;6.07;;;1.88;;
23290;SDS011;11814;44.686;10.842;2023-04-04T14:43:25;4.03;;;1.75;;
23290;SDS011;11814;44.686;10.842;2023-04-04T14:45:51;7.15;;;1.90;;
23290;SDS011;11814;44.686;10.842;2023-04-04T14:48:17;5.65;;;2.33;;
23290;SDS011;11814;44.686;10.842;2023-04-04T14:50:43;5.97;;;2.20;;
23290;SDS011;11814;44.686;10.842;2023-04-04T14:53:09;8.77;;;2.75;;
23290;SDS011;11814;44.686;10.842;2023-04-04T14:55:35;3.22;;;1.60;;
23290;SDS011;11814;44.686;10.842;2023-04-04T14:58:01;3.97;;;1.73;;
23290;SDS011;11814;44.686;10.842;2023-04-04T15:00:27;6.90;;;1.92;;
23290;SDS011;11814;44.686;10.842;2023-04-04T15:02:53;3.42;;;1.70;;